Pagrindinis puslapis
METAR-TAF:

METAR-TAF

Oro uostai :

Volgogradas, Rusija

platuma: 48-47N, ilguma: 044-22E, Aukštis: 145 m

Dabartinis oras

Ataskaita buvo paskelbta 51 minutes, ne 04:30 UTC
Vėjas 17 kt iš Rytų
Temperatūra 20°C
Drėgmė 56%
Slėgis 1015 hPa
Matomumas 10 km arba daugiau
nėra debesų žemiau 1500 m ir nėra kamuolinių lietaus debesų

METAR: URWW 290430Z 09009MPS CAVOK 20/11 Q1015 R06/010070 NOSIG

Laikas: 09:21 (05:21 UTC)

Prognozė

Ataskaita buvo paskelbta 3 valandos ir 22 minutes, ne 01:59 UTC
Prognozė galioja nuo 29 metu 03 UTC su 29 metu 12 UTC
Vėjas 17 kt iš Rytų su gūsio iki 29 kt
Matomumas 10 km arba daugiau
Su prošvaistėmis ne aukštis 1600 ft
Išsisklaidę debesys ne aukštis 2000 ft, Liūtiniai kamuoliniai debesys.
Laikinai
nuo 29 metu 03 UTC su 29 metu 12 UTC
Vėjas 19 kt iš Rytų/Šiaurės Rytų su gūsio iki 33 kt

TAF: URWW 290159Z 2903/2912 09009G15MPS 9999 BKN016 SCT020CB TEMPO 2903/2912 07010G17MPS

Orai ataskaitas ir orų prognozės (METAR, TAF).

turimą stotys yra geltonos ir raudonos taškus žemėlapyje.

Perkelti pele per norėdami pamatyti stoties vardą.

Tada spustelėkite, norėdami matyti oro stebėjimo ir prognozės.

Norėdami pakeisti žemėlapį: spustelėkite ant žalios mygtukų su juodo kryžiaus žemyn,; žalią mygtuką su brūkšneliu, jei norite nutolinti; arba žalių rodyklių gretimoms žemėlapius.


METAR-TAF: